Time;durP1;ratioP1;P1;durP2;ratioP2;P2;SDS_P1;SDS_P2;PMS_P1;PMS_P2;Temp;Humidity;BMP_temperature;BMP_pressure;BME280_temperature;BME280_humidity;BME280_pressure;Samples;Min_cycle;Max_cycle;Signal;HPM_P1;HPM_P2
2021/03/07 00:01:06;;;;;;;12.93;8.20;;;2.50;99.90;;;;;;4973509;28;20181;-77
2021/03/07 00:03:32;;;;;;;10.33;8.70;;;2.50;99.90;;;;;;4959463;28;20194;-77
2021/03/07 00:05:57;;;;;;;10.00;8.70;;;2.50;99.90;;;;;;4957980;28;20201;-77
2021/03/07 00:08:23;;;;;;;12.03;8.70;;;2.40;99.90;;;;;;4957139;28;20201;-77
2021/03/07 00:10:48;;;;;;;13.63;8.93;;;2.40;99.90;;;;;;4973662;28;20173;-77
2021/03/07 00:13:14;;;;;;;13.23;8.47;;;2.40;99.90;;;;;;4975892;28;20206;-77
2021/03/07 00:15:39;;;;;;;8.60;7.70;;;2.30;99.90;;;;;;4975089;28;20184;-77
2021/03/07 00:18:05;;;;;;;10.53;8.77;;;2.30;99.90;;;;;;4974910;28;20187;-77
2021/03/07 00:20:31;;;;;;;10.67;8.00;;;2.30;99.90;;;;;;4976177;28;20201;-77
2021/03/07 00:22:57;;;;;;;15.13;9.37;;;2.30;99.90;;;;;;4976644;28;20802;-77
2021/03/07 00:25:24;;;;;;;15.63;9.50;;;2.30;99.90;;;;;;4976906;28;20242;-77
2021/03/07 00:27:49;;;;;;;11.90;7.90;;;2.30;99.90;;;;;;4953308;29;20684;-76
2021/03/07 00:30:17;;;;;;;10.23;8.27;;;2.20;99.90;;;;;;4962149;28;20452;-77
2021/03/07 00:32:44;;;;;;;9.30;8.33;;;2.30;99.90;;;;;;4973329;28;20176;-77
2021/03/07 00:35:10;;;;;;;8.87;7.87;;;2.30;99.90;;;;;;4973948;28;20429;-76
2021/03/07 00:37:36;;;;;;;10.43;8.10;;;2.30;99.90;;;;;;4973597;28;20493;-76
2021/03/07 00:40:04;;;;;;;10.80;8.47;;;2.20;99.90;;;;;;4973099;28;20955;-76
2021/03/07 00:42:30;;;;;;;8.67;7.50;;;2.10;99.90;;;;;;4973215;28;20192;-76
2021/03/07 00:44:55;;;;;;;8.60;7.30;;;2.10;99.90;;;;;;4974169;28;20422;-76
2021/03/07 00:47:21;;;;;;;8.40;7.60;;;2.00;99.90;;;;;;4973109;28;20203;-76
2021/03/07 00:49:46;;;;;;;7.83;5.77;;;2.00;99.90;;;;;;4971956;28;20266;-77
2021/03/07 00:52:12;;;;;;;10.70;6.80;;;2.10;99.90;;;;;;4973180;28;20188;-76
2021/03/07 00:54:38;;;;;;;8.43;6.00;;;2.00;99.90;;;;;;4970444;28;20179;-76
2021/03/07 00:57:04;;;;;;;6.53;5.67;;;2.00;99.90;;;;;;4971879;28;20708;-77
2021/03/07 00:59:29;;;;;;;9.80;6.93;;;1.90;99.90;;;;;;4973081;28;20260;-77
2021/03/07 01:01:55;;;;;;;7.73;6.93;;;2.00;99.90;;;;;;4969566;28;20429;-76
2021/03/07 01:04:20;;;;;;;9.20;6.30;;;2.00;99.90;;;;;;4974961;28;20217;-77
2021/03/07 01:06:46;;;;;;;8.13;6.87;;;2.00;99.90;;;;;;4975382;28;20562;-76
2021/03/07 01:09:12;;;;;;;9.07;5.90;;;1.90;99.90;;;;;;4976382;28;20180;-77
2021/03/07 01:11:37;;;;;;;7.70;6.50;;;1.90;99.90;;;;;;4976055;28;20193;-76
2021/03/07 01:14:05;;;;;;;10.00;6.10;;;1.80;99.90;;;;;;4969451;28;20652;-77
2021/03/07 01:16:30;;;;;;;8.70;5.97;;;1.90;99.90;;;;;;4956347;28;20217;-77
2021/03/07 01:18:56;;;;;;;9.53;6.97;;;1.90;99.90;;;;;;4976115;28;20919;-77
2021/03/07 01:21:21;;;;;;;7.27;6.40;;;1.80;99.90;;;;;;4976472;28;20662;-78
2021/03/07 01:23:47;;;;;;;11.73;6.27;;;1.90;99.90;;;;;;4960451;28;20173;-76
2021/03/07 01:26:13;;;;;;;9.90;5.80;;;1.80;99.90;;;;;;4972741;28;20195;-76
2021/03/07 01:28:38;;;;;;;6.60;5.97;;;1.80;99.90;;;;;;4974522;28;20518;-75
2021/03/07 01:31:04;;;;;;;8.67;7.07;;;1.80;99.90;;;;;;4974278;28;20614;-76
2021/03/07 01:33:30;;;;;;;11.00;6.37;;;1.80;99.90;;;;;;4975039;28;20183;-76
2021/03/07 01:36:01;;;;;;;9.90;7.00;;;1.80;99.90;;;;;;4974415;28;20194;-76
2021/03/07 01:38:27;;;;;;;7.10;6.33;;;1.70;99.90;;;;;;4973754;28;20857;-76
2021/03/07 01:40:53;;;;;;;9.30;6.40;;;1.70;99.90;;;;;;4974342;28;20466;-76
2021/03/07 01:43:21;;;;;;;8.93;6.40;;;1.80;99.90;;;;;;4944343;28;20186;-76
2021/03/07 01:45:47;;;;;;;7.63;6.00;;;1.80;99.90;;;;;;4974725;28;20177;-76
2021/03/07 01:48:14;;;;;;;11.57;6.70;;;1.80;99.90;;;;;;4975061;28;20929;-76
2021/03/07 01:50:43;;;;;;;8.30;6.00;;;1.80;99.90;;;;;;4974625;28;20189;-77
2021/03/07 01:53:09;;;;;;;8.57;5.70;;;1.80;99.90;;;;;;4974861;28;20439;-76
2021/03/07 01:55:37;;;;;;;8.97;6.43;;;1.70;99.90;;;;;;4973957;28;20437;-76
2021/03/07 01:58:07;;;;;;;9.17;6.53;;;1.80;99.90;;;;;;4954909;28;20467;-76
2021/03/07 02:00:32;;;;;;;6.77;5.53;;;1.80;99.90;;;;;;4956611;28;20477;-76
2021/03/07 02:02:58;;;;;;;7.63;5.80;;;1.70;99.90;;;;;;4973849;28;20441;-77
2021/03/07 02:05:24;;;;;;;14.30;5.43;;;1.70;99.90;;;;;;4976934;28;20174;-77
2021/03/07 02:07:50;;;;;;;8.17;5.10;;;1.60;99.90;;;;;;4974236;28;20465;-77
2021/03/07 02:10:27;;;;;;;9.80;6.07;;;1.60;99.90;;;;;;4974970;28;20440;-76
2021/03/07 02:12:56;;;;;;;6.80;6.10;;;1.60;99.90;;;;;;4975209;28;20209;-76
2021/03/07 02:15:22;;;;;;;8.03;5.70;;;1.50;99.90;;;;;;4958203;28;20960;-76
2021/03/07 02:17:48;;;;;;;14.83;6.97;;;1.50;99.90;;;;;;4972966;28;20457;-76
2021/03/07 02:20:18;;;;;;;6.63;5.63;;;1.50;99.90;;;;;;4974550;28;20438;-77
2021/03/07 02:22:52;;;;;;;11.03;7.37;;;1.50;99.90;;;;;;4974809;28;20970;-76
2021/03/07 02:25:18;;;;;;;8.13;6.30;;;1.50;99.90;;;;;;4958008;28;20442;-77
2021/03/07 02:27:44;;;;;;;6.93;5.87;;;1.50;99.90;;;;;;4973191;28;20476;-76
2021/03/07 02:30:12;;;;;;;10.43;6.53;;;1.30;99.90;;;;;;4971602;28;20197;-76
2021/03/07 02:32:45;;;;;;;7.10;6.10;;;1.40;99.90;;;;;;4959415;28;20439;-77
2021/03/07 02:35:20;;;;;;;6.70;5.50;;;1.30;99.90;;;;;;4976134;28;21096;-77
2021/03/07 02:37:52;;;;;;;7.93;5.70;;;1.30;99.90;;;;;;4964729;28;20436;-77
2021/03/07 02:40:20;;;;;;;8.43;5.57;;;1.30;99.90;;;;;;4975982;28;21118;-77
2021/03/07 02:42:47;;;;;;;9.07;7.37;;;1.30;99.90;;;;;;4959144;28;20507;-77
2021/03/07 02:45:19;;;;;;;7.93;7.10;;;1.20;99.90;;;;;;4958997;28;21097;-77
2021/03/07 02:47:48;;;;;;;14.50;6.90;;;1.20;99.90;;;;;;4974991;28;20556;-77
2021/03/07 02:50:19;;;;;;;7.97;5.80;;;1.20;99.90;;;;;;4957176;28;20445;-77
2021/03/07 02:53:07;;;;;;;8.07;5.93;;;1.10;99.90;;;;;;4976379;28;20445;-76
2021/03/07 02:55:34;;;;;;;7.10;6.20;;;1.10;99.90;;;;;;4973019;28;20990;-76
2021/03/07 02:58:05;;;;;;;7.83;6.10;;;1.10;99.90;;;;;;4973321;28;20499;-76
2021/03/07 03:00:34;;;;;;;9.20;7.10;;;1.10;99.90;;;;;;4970861;28;20440;-77
2021/03/07 03:03:07;;;;;;;7.43;6.53;;;1.10;99.90;;;;;;4969488;28;20417;-77
2021/03/07 03:05:34;;;;;;;12.50;5.77;;;1.00;99.90;;;;;;4973319;28;20479;-77
2021/03/07 03:08:01;;;;;;;7.00;6.30;;;1.00;99.90;;;;;;4973552;28;20465;-76
2021/03/07 03:10:28;;;;;;;6.30;5.50;;;1.00;99.90;;;;;;4973692;28;20961;-77
2021/03/07 03:12:54;;;;;;;10.07;6.30;;;1.00;99.90;;;;;;4975254;28;20438;-77
2021/03/07 03:15:20;;;;;;;10.97;7.20;;;1.00;99.90;;;;;;4974355;28;20508;-77
2021/03/07 03:17:49;;;;;;;6.77;6.07;;;0.90;99.90;;;;;;4973157;28;21030;-76
2021/03/07 03:20:16;;;;;;;9.00;5.83;;;0.90;99.90;;;;;;4973395;28;20186;-76
2021/03/07 03:22:43;;;;;;;7.80;6.40;;;0.90;99.90;;;;;;4955846;28;20810;-77
2021/03/07 03:25:09;;;;;;;8.00;5.70;;;0.80;99.90;;;;;;4973938;28;20443;-77
2021/03/07 03:27:36;;;;;;;7.43;5.83;;;0.80;99.90;;;;;;4955459;28;20468;-77
2021/03/07 03:30:08;;;;;;;7.77;6.40;;;0.60;99.90;;;;;;4972696;28;20512;-76
2021/03/07 03:32:33;;;;;;;7.03;5.30;;;0.70;99.90;;;;;;4973051;28;20520;-76
2021/03/07 03:34:59;;;;;;;8.50;5.87;;;0.70;99.90;;;;;;4971777;28;21009;-77
2021/03/07 03:37:25;;;;;;;5.80;4.93;;;0.80;99.90;;;;;;4958312;28;20190;-77
2021/03/07 03:39:52;;;;;;;9.03;6.43;;;0.80;99.90;;;;;;4975622;28;20214;-77
2021/03/07 03:42:19;;;;;;;10.93;6.70;;;0.70;99.90;;;;;;4974354;28;20561;-77
2021/03/07 03:44:45;;;;;;;10.53;6.93;;;0.70;99.90;;;;;;4971995;28;20438;-76
2021/03/07 03:47:12;;;;;;;7.00;5.90;;;0.70;99.90;;;;;;4973595;28;20471;-77
2021/03/07 03:49:58;;;;;;;7.60;6.80;;;0.70;99.90;;;;;;4975945;28;20480;-77
2021/03/07 03:52:25;;;;;;;11.50;6.73;;;0.70;99.90;;;;;;4955164;28;20523;-76
2021/03/07 03:55:02;;;;;;;8.37;6.90;;;0.60;99.90;;;;;;4972385;28;20508;-76
2021/03/07 03:57:30;;;;;;;12.73;6.70;;;0.60;99.90;;;;;;4971433;28;20858;-76
2021/03/07 03:59:59;;;;;;;7.40;6.63;;;0.60;99.90;;;;;;4974367;28;20470;-77
2021/03/07 04:02:26;;;;;;;9.40;6.53;;;0.60;99.90;;;;;;4974784;28;20433;-77
2021/03/07 04:04:56;;;;;;;9.47;6.40;;;0.60;99.90;;;;;;4973579;28;20472;-76
2021/03/07 04:07:24;;;;;;;10.90;6.70;;;0.60;99.90;;;;;;4970707;28;20500;-76
2021/03/07 04:09:52;;;;;;;9.00;5.67;;;0.50;99.90;;;;;;4970211;28;20494;-76
2021/03/07 04:12:19;;;;;;;7.23;5.90;;;0.50;99.90;;;;;;4972226;28;20428;-76
2021/03/07 04:14:46;;;;;;;9.10;6.27;;;0.50;99.90;;;;;;4974109;28;20528;-77
2021/03/07 04:17:13;;;;;;;11.57;7.90;;;0.50;99.90;;;;;;4975030;28;20461;-76
2021/03/07 04:19:39;;;;;;;9.90;7.43;;;0.50;99.90;;;;;;4975088;28;20431;-76
2021/03/07 04:22:05;;;;;;;10.10;6.50;;;0.40;99.90;;;;;;4970790;28;20435;-76
2021/03/07 04:24:31;;;;;;;12.27;6.50;;;0.40;99.90;;;;;;4973468;28;20875;-77
2021/03/07 04:26:57;;;;;;;7.33;6.57;;;0.40;99.90;;;;;;4971677;28;20886;-76
2021/03/07 04:29:25;;;;;;;7.50;6.00;;;0.40;99.90;;;;;;4971654;28;20185;-76
2021/03/07 04:31:55;;;;;;;8.77;6.80;;;0.30;99.90;;;;;;4975153;28;20438;-76
2021/03/07 04:34:21;;;;;;;8.07;6.00;;;0.30;99.90;;;;;;4972800;28;21014;-76
2021/03/07 04:36:47;;;;;;;9.80;6.20;;;0.30;99.90;;;;;;4975567;28;20511;-76
2021/03/07 04:39:13;;;;;;;8.90;6.23;;;0.30;99.90;;;;;;4975030;28;20780;-76
2021/03/07 04:41:38;;;;;;;11.80;6.40;;;0.20;99.90;;;;;;4975833;28;20221;-76
2021/03/07 04:44:04;;;;;;;8.40;5.80;;;0.20;99.90;;;;;;4975911;28;20184;-77
2021/03/07 04:46:30;;;;;;;8.60;7.37;;;0.20;99.90;;;;;;4958701;28;20251;-76
2021/03/07 04:48:56;;;;;;;9.80;6.30;;;0.20;99.90;;;;;;4975717;28;20436;-76
2021/03/07 04:51:22;;;;;;;9.20;5.70;;;0.20;99.90;;;;;;4974410;28;20209;-76
2021/03/07 04:53:48;;;;;;;8.20;6.20;;;0.10;99.90;;;;;;4959040;28;20436;-76
2021/03/07 04:56:14;;;;;;;7.10;6.40;;;0.10;99.90;;;;;;4978146;28;20455;-76
2021/03/07 04:58:40;;;;;;;8.87;6.33;;;0.10;99.90;;;;;;4955759;28;20186;-76
2021/03/07 05:01:05;;;;;;;8.70;6.00;;;0.00;99.90;;;;;;4973514;28;20494;-76
2021/03/07 05:03:32;;;;;;;9.87;7.50;;;0.00;99.90;;;;;;4975218;28;20189;-76
2021/03/07 05:05:58;;;;;;;7.63;6.83;;;-0.10;99.90;;;;;;4959340;28;20202;-77
2021/03/07 05:08:25;;;;;;;6.73;5.90;;;0.00;99.90;;;;;;4977314;28;20457;-77
2021/03/07 05:10:51;;;;;;;8.97;5.80;;;-0.10;99.90;;;;;;4975734;28;20471;-76
2021/03/07 05:13:17;;;;;;;7.97;7.13;;;-0.10;99.90;;;;;;4976827;28;20449;-76
2021/03/07 05:15:42;;;;;;;9.77;6.73;;;-0.10;99.90;;;;;;4978020;28;20464;-77
2021/03/07 05:18:08;;;;;;;7.30;6.37;;;-0.10;99.90;;;;;;4978020;28;20186;-77
2021/03/07 05:20:34;;;;;;;9.97;7.10;;;-0.20;99.90;;;;;;4978427;28;20195;-77
2021/03/07 05:22:59;;;;;;;11.90;8.27;;;-0.20;99.90;;;;;;4978518;28;20181;-77
2021/03/07 05:25:25;;;;;;;10.97;8.37;;;-0.30;99.90;;;;;;4976578;28;20528;-77
2021/03/07 05:27:52;;;;;;;17.97;8.80;;;-0.30;99.90;;;;;;4975773;28;20233;-77
2021/03/07 05:30:18;;;;;;;18.43;11.13;;;-0.30;99.90;;;;;;4977187;28;20714;-77
2021/03/07 05:32:43;;;;;;;14.00;8.80;;;-0.40;99.90;;;;;;4975605;28;20437;-76
2021/03/07 05:35:09;;;;;;;18.00;9.67;;;-0.60;99.90;;;;;;4959008;28;21229;-76
2021/03/07 05:37:35;;;;;;;11.77;9.90;;;-0.50;99.90;;;;;;4975741;28;20201;-76
2021/03/07 05:40:01;;;;;;;14.00;9.50;;;-0.50;99.90;;;;;;4975857;28;21012;-76
2021/03/07 05:42:29;;;;;;;12.60;9.27;;;-0.50;99.90;;;;;;4977110;28;20185;-77
2021/03/07 05:44:55;;;;;;;12.73;8.23;;;-0.50;99.90;;;;;;4959556;28;20188;-77
2021/03/07 05:47:20;;;;;;;11.60;9.00;;;-0.50;99.90;;;;;;4959912;28;20469;-77
2021/03/07 05:49:46;;;;;;;12.00;8.30;;;-0.40;99.90;;;;;;4977618;28;20439;-76
2021/03/07 05:52:12;;;;;;;13.30;10.17;;;-0.40;99.90;;;;;;4977624;28;20258;-77
2021/03/07 05:54:38;;;;;;;13.57;10.50;;;-0.40;99.90;;;;;;4977307;28;20595;-76
2021/03/07 05:57:05;;;;;;;12.93;9.10;;;-0.30;99.90;;;;;;4975168;28;20457;-76
2021/03/07 05:59:35;;;;;;;14.37;9.77;;;-0.30;99.90;;;;;;4976075;28;20452;-76
2021/03/07 06:02:02;;;;;;;15.63;10.67;;;-0.30;99.90;;;;;;4973737;28;20445;-76
2021/03/07 06:04:28;;;;;;;14.00;9.60;;;-0.30;99.90;;;;;;4977158;28;20429;-77
2021/03/07 06:06:54;;;;;;;12.47;10.07;;;-0.30;99.90;;;;;;4977144;28;20460;-77
2021/03/07 06:09:27;;;;;;;15.10;10.23;;;-0.30;99.90;;;;;;4975494;28;20261;-77
2021/03/07 06:11:55;;;;;;;17.57;11.33;;;-0.30;99.90;;;;;;4977466;28;20197;-77
2021/03/07 06:14:21;;;;;;;13.53;10.50;;;-0.30;99.90;;;;;;4975111;28;20942;-77
2021/03/07 06:16:57;;;;;;;16.57;11.17;;;-0.30;99.90;;;;;;4969804;28;20527;-77
2021/03/07 06:19:23;;;;;;;17.67;11.63;;;-0.30;99.90;;;;;;4957682;28;20504;-76
2021/03/07 06:21:48;;;;;;;16.03;11.10;;;-0.30;99.90;;;;;;4973245;28;20524;-76
2021/03/07 06:24:36;;;;;;;14.83;10.50;;;-0.30;99.90;;;;;;4972650;28;20424;-76
2021/03/07 06:27:04;;;;;;;16.03;9.60;;;-0.20;99.90;;;;;;4962413;28;20197;-76
2021/03/07 06:29:29;;;;;;;13.60;9.40;;;-0.20;99.90;;;;;;4972359;28;20441;-76
2021/03/07 06:31:55;;;;;;;16.80;10.00;;;-0.20;99.90;;;;;;4955753;28;20492;-76
2021/03/07 06:34:21;;;;;;;15.80;10.80;;;-0.20;99.90;;;;;;4973248;28;20192;-76
2021/03/07 06:36:46;;;;;;;20.20;10.40;;;-0.10;99.90;;;;;;4971821;28;20660;-76
2021/03/07 06:39:12;;;;;;;15.50;10.23;;;-0.20;99.90;;;;;;4972640;28;20169;-76
2021/03/07 06:41:38;;;;;;;11.77;9.33;;;-0.10;99.90;;;;;;4972775;28;20178;-76
2021/03/07 06:44:09;;;;;;;14.40;10.30;;;-0.10;99.90;;;;;;4973701;28;20228;-76
2021/03/07 06:46:37;;;;;;;13.40;10.77;;;-0.10;99.90;;;;;;4974014;28;21026;-76
2021/03/07 06:49:03;;;;;;;16.80;12.40;;;-0.10;99.90;;;;;;4973173;28;20437;-76
2021/03/07 06:51:33;;;;;;;17.97;12.97;;;-0.30;99.90;;;;;;4973781;28;20604;-76
2021/03/07 06:54:14;;;;;;;15.63;11.27;;;-0.20;99.90;;;;;;4972436;28;20781;-77
2021/03/07 06:56:49;;;;;;;14.30;11.67;;;-0.30;99.90;;;;;;4973223;28;20463;-77
2021/03/07 06:59:23;;;;;;;18.40;11.20;;;-0.20;99.90;;;;;;4974224;28;20827;-77
2021/03/07 07:01:50;;;;;;;19.70;11.40;;;0.00;99.90;;;;;;4974671;28;20488;-77
2021/03/07 07:04:17;;;;;;;20.30;12.10;;;0.10;99.90;;;;;;4970723;28;20799;-76
2021/03/07 07:06:58;;;;;;;17.27;11.47;;;0.20;99.90;;;;;;4974255;28;20452;-77
2021/03/07 07:09:25;;;;;;;14.90;11.07;;;0.30;99.90;;;;;;4975101;28;20519;-77
2021/03/07 07:11:50;;;;;;;18.63;10.93;;;0.50;99.90;;;;;;4977196;28;20433;-77
2021/03/07 07:14:40;;;;;;;18.90;11.80;;;0.60;99.90;;;;;;4973038;28;20441;-76
2021/03/07 07:17:08;;;;;;;18.53;12.30;;;0.60;99.90;;;;;;4973653;28;20551;-73
2021/03/07 07:19:34;;;;;;;15.63;11.77;;;0.80;99.90;;;;;;4972881;28;20810;-72
2021/03/07 07:22:00;;;;;;;31.77;13.00;;;0.80;99.90;;;;;;4973550;28;20441;-72
2021/03/07 07:24:25;;;;;;;17.80;12.77;;;0.90;99.90;;;;;;4973714;28;20443;-72
2021/03/07 07:26:51;;;;;;;16.83;11.83;;;1.10;99.90;;;;;;4973063;28;20460;-73
2021/03/07 07:29:17;;;;;;;17.03;13.43;;;1.20;99.90;;;;;;4950900;28;20663;-72
2021/03/07 07:32:00;;;;;;;18.23;12.40;;;1.40;99.90;;;;;;4972171;28;20433;-72
2021/03/07 07:34:30;;;;;;;16.50;12.10;;;1.40;99.90;;;;;;4971560;28;20468;-72
2021/03/07 07:37:11;;;;;;;20.20;13.37;;;1.60;99.90;;;;;;4972460;28;20464;-73
2021/03/07 07:39:39;;;;;;;12.90;10.90;;;1.70;99.90;;;;;;4973403;28;20859;-80
2021/03/07 07:42:29;;;;;;;17.53;12.37;;;2.10;99.90;;;;;;4962265;28;20472;-76
2021/03/07 07:44:56;;;;;;;17.00;11.73;;;2.40;99.90;;;;;;4966430;28;20430;-76
2021/03/07 07:47:22;;;;;;;19.43;11.40;;;2.90;99.90;;;;;;4982347;28;20470;-77
2021/03/07 07:49:50;;;;;;;13.27;10.13;;;3.70;99.90;;;;;;4967323;28;20450;-76
2021/03/07 07:52:25;;;;;;;13.60;12.00;;;4.70;99.90;;;;;;4982682;28;20577;-76
2021/03/07 07:54:58;;;;;;;17.70;11.37;;;5.80;99.90;;;;;;4966658;28;20416;-76
2021/03/07 07:57:37;;;;;;;14.03;10.70;;;6.80;99.90;;;;;;4967293;28;20468;-76
2021/03/07 08:00:16;;;;;;;13.73;10.37;;;7.80;99.90;;;;;;4963380;28;20433;-76
2021/03/07 08:02:42;;;;;;;16.17;10.70;;;8.70;99.90;;;;;;4977302;28;20432;-77
2021/03/07 08:05:19;;;;;;;11.53;9.63;;;9.40;99.90;;;;;;4982693;28;20487;-77
2021/03/07 08:08:00;;;;;;;15.73;10.77;;;10.00;99.90;;;;;;4982106;28;20730;-77
2021/03/07 08:10:40;;;;;;;12.33;10.80;;;10.60;99.90;;;;;;4985959;28;20432;-77
2021/03/07 08:13:09;;;;;;;11.10;10.00;;;11.50;99.90;;;;;;4987147;28;20417;-77
2021/03/07 08:15:47;;;;;;;16.77;9.97;;;12.20;99.40;;;;;;4969718;28;20455;-77
2021/03/07 08:18:16;;;;;;;14.77;11.23;;;12.90;95.00;;;;;;4986048;28;20516;-76
2021/03/07 08:20:42;;;;;;;19.53;12.00;;;13.40;90.00;;;;;;4985592;28;20428;-76
2021/03/07 08:23:19;;;;;;;15.40;11.70;;;13.90;84.90;;;;;;4986744;28;20428;-76
2021/03/07 08:25:51;;;;;;;15.10;10.80;;;14.50;80.60;;;;;;4985339;28;20240;-77
2021/03/07 08:28:29;;;;;;;15.53;11.50;;;14.60;67.70;;;;;;4976527;28;20469;-76
2021/03/07 08:30:55;;;;;;;13.17;11.80;;;14.70;66.60;;;;;;4985269;28;20432;-77
2021/03/07 08:33:30;;;;;;;12.77;11.33;;;14.80;64.40;;;;;;4967453;28;20436;-76
2021/03/07 08:36:15;;;;;;;10.80;9.67;;;14.90;64.60;;;;;;4966412;28;20490;-76
2021/03/07 08:38:53;;;;;;;15.13;11.83;;;14.90;66.90;;;;;;4982733;28;20436;-77
2021/03/07 08:41:32;;;;;;;12.73;11.50;;;14.80;61.40;;;;;;4983943;28;20427;-76
2021/03/07 08:43:59;;;;;;;11.93;10.67;;;14.90;61.70;;;;;;4983327;28;20433;-77
2021/03/07 08:46:45;;;;;;;14.57;13.07;;;15.30;59.90;;;;;;4981955;28;20444;-76
2021/03/07 08:49:21;;;;;;;12.00;10.70;;;15.50;60.20;;;;;;4965631;28;20432;-76
2021/03/07 08:51:50;;;;;;;14.10;11.57;;;15.10;58.60;;;;;;4983063;28;20503;-76
2021/03/07 08:54:21;;;;;;;14.13;12.73;;;15.00;59.00;;;;;;4980875;28;20421;-76
2021/03/07 08:56:49;;;;;;;13.53;11.20;;;14.80;58.60;;;;;;4979443;28;20437;-76
2021/03/07 08:59:15;;;;;;;13.80;11.90;;;14.70;58.30;;;;;;4981465;28;20408;-76
2021/03/07 09:01:41;;;;;;;11.77;10.67;;;14.60;59.60;;;;;;4981528;28;20940;-76
2021/03/07 09:04:09;;;;;;;12.47;10.80;;;14.70;59.00;;;;;;4976017;28;20193;-76
2021/03/07 09:06:37;;;;;;;13.07;10.87;;;14.80;59.10;;;;;;4972657;28;20457;-76
2021/03/07 09:09:22;;;;;;;15.53;11.60;;;14.80;59.30;;;;;;4981527;28;20428;-76
2021/03/07 09:11:51;;;;;;;14.80;12.70;;;14.80;58.50;;;;;;4980663;28;21172;-76
2021/03/07 09:14:18;;;;;;;15.30;12.50;;;14.80;58.70;;;;;;4982931;28;20429;-76
2021/03/07 09:16:48;;;;;;;14.90;13.07;;;14.80;58.70;;;;;;4982884;28;20495;-76
2021/03/07 09:19:31;;;;;;;14.07;12.50;;;14.80;57.90;;;;;;4983742;28;20425;-75
2021/03/07 09:22:15;;;;;;;13.63;12.10;;;14.90;58.40;;;;;;4982609;28;20480;-76
2021/03/07 09:24:53;;;;;;;15.27;13.67;;;14.80;57.20;;;;;;4968844;28;20487;-76
2021/03/07 09:27:19;;;;;;;14.23;12.73;;;15.10;58.70;;;;;;4983031;28;21000;-76
2021/03/07 09:30:00;;;;;;;13.90;12.40;;;15.40;56.90;;;;;;4982526;28;20432;-76
2021/03/07 09:32:28;;;;;;;19.13;12.50;;;15.10;56.50;;;;;;4981766;28;20579;-76
2021/03/07 09:34:55;;;;;;;20.33;13.30;;;15.40;57.70;;;;;;4981366;28;20436;-76
2021/03/07 09:37:21;;;;;;;16.93;14.10;;;15.50;56.80;;;;;;4981586;28;20475;-76
2021/03/07 09:39:50;;;;;;;16.40;13.23;;;15.30;57.90;;;;;;4982829;28;20795;-74
2021/03/07 09:42:20;;;;;;;19.40;13.70;;;15.90;58.20;;;;;;4982337;28;20557;-74
2021/03/07 09:44:46;;;;;;;13.80;12.40;;;16.00;56.40;;;;;;4981810;28;20464;-74
2021/03/07 09:47:14;;;;;;;17.57;12.43;;;16.10;55.30;;;;;;4964473;28;20460;-74
2021/03/07 09:49:40;;;;;;;17.50;13.10;;;16.50;56.30;;;;;;4979366;28;20432;-74
2021/03/07 09:52:07;;;;;;;17.27;13.67;;;16.70;56.10;;;;;;4980595;28;20444;-74
2021/03/07 09:54:33;;;;;;;14.43;12.50;;;16.90;54.60;;;;;;4976332;28;20417;-75
2021/03/07 09:56:59;;;;;;;14.03;12.77;;;16.90;53.00;;;;;;4981608;28;20445;-74
2021/03/07 09:59:32;;;;;;;14.17;12.30;;;16.80;54.40;;;;;;4981297;28;20177;-75
2021/03/07 10:02:00;;;;;;;14.60;12.97;;;16.40;54.20;;;;;;4981353;28;20177;-75
2021/03/07 10:04:32;;;;;;;13.87;12.47;;;16.70;54.40;;;;;;4982050;28;20441;-75
2021/03/07 10:07:21;;;;;;;14.10;10.80;;;16.70;52.90;;;;;;4964698;28;20452;-75
2021/03/07 10:10:16;;;;;;;13.70;12.00;;;16.70;55.50;;;;;;4958399;28;20516;-75
2021/03/07 10:12:54;;;;;;;13.73;11.23;;;16.80;53.80;;;;;;4979902;28;20473;-75
2021/03/07 10:15:29;;;;;;;13.73;12.43;;;17.10;51.50;;;;;;4979360;28;20815;-75
2021/03/07 10:18:00;;;;;;;14.43;12.10;;;17.20;51.20;;;;;;4979543;28;20428;-75
2021/03/07 10:20:41;;;;;;;11.90;10.70;;;17.30;51.20;;;;;;4980435;28;20425;-75
2021/03/07 10:23:08;;;;;;;14.60;12.10;;;17.30;50.30;;;;;;4980326;28;20483;-75
2021/03/07 10:25:42;;;;;;;12.07;10.83;;;17.30;51.20;;;;;;4979629;28;20437;-74
2021/03/07 10:28:23;;;;;;;9.50;8.50;;;17.00;50.10;;;;;;4977483;28;20471;-77
2021/03/07 10:30:51;;;;;;;9.47;8.47;;;16.50;49.00;;;;;;4963524;28;20490;-77
2021/03/07 10:33:23;;;;;;;10.53;9.43;;;16.70;48.80;;;;;;4976195;28;20459;-77
2021/03/07 10:36:07;;;;;;;14.80;9.63;;;16.70;48.30;;;;;;4958939;28;20417;-77
2021/03/07 10:38:36;;;;;;;9.10;8.20;;;17.00;48.90;;;;;;4968124;28;20420;-77
2021/03/07 10:41:25;;;;;;;11.10;8.70;;;16.90;48.40;;;;;;4958604;28;20429;-77
2021/03/07 10:43:53;;;;;;;20.73;13.90;;;16.90;48.50;;;;;;4974847;28;20504;-77
2021/03/07 10:46:29;;;;;;;15.60;13.33;;;16.90;52.00;;;;;;4956595;28;20963;-76
2021/03/07 10:48:56;;;;;;;11.47;10.27;;;17.00;51.60;;;;;;4958777;28;20456;-77
2021/03/07 10:51:23;;;;;;;12.90;11.70;;;17.40;51.50;;;;;;4975381;28;20428;-77
2021/03/07 10:53:48;;;;;;;13.27;11.83;;;17.40;50.80;;;;;;4974820;28;20436;-77
2021/03/07 10:56:14;;;;;;;10.83;9.80;;;17.50;50.40;;;;;;4975701;28;20436;-77
2021/03/07 10:58:39;;;;;;;12.87;11.43;;;17.80;50.00;;;;;;4976985;28;20208;-76
2021/03/07 11:01:05;;;;;;;11.57;10.50;;;17.50;47.40;;;;;;4973335;28;20185;-77
2021/03/07 11:03:32;;;;;;;11.47;9.97;;;17.60;49.80;;;;;;4958581;28;20542;-76
2021/03/07 11:05:57;;;;;;;12.97;10.67;;;17.70;49.10;;;;;;4965130;28;20280;-77
2021/03/07 11:08:23;;;;;;;12.63;11.33;;;17.80;48.90;;;;;;4971833;28;20536;-77
2021/03/07 11:10:49;;;;;;;13.37;10.90;;;17.80;47.80;;;;;;4970168;28;20232;-76
2021/03/07 11:13:14;;;;;;;13.53;12.13;;;17.80;47.60;;;;;;4976198;28;20659;-77
2021/03/07 11:15:40;;;;;;;10.93;9.77;;;17.90;47.50;;;;;;4975522;28;20208;-76
2021/03/07 11:18:06;;;;;;;10.50;9.50;;;17.70;47.10;;;;;;4976889;28;20181;-76
2021/03/07 11:20:31;;;;;;;10.97;9.97;;;18.10;48.40;;;;;;4975508;28;20551;-76
2021/03/07 11:22:57;;;;;;;11.93;10.13;;;18.10;47.10;;;;;;4976260;28;20537;-77
2021/03/07 11:25:22;;;;;;;9.47;8.60;;;17.70;47.60;;;;;;4976973;28;20557;-77
2021/03/07 11:27:49;;;;;;;10.83;9.67;;;17.70;48.60;;;;;;4974678;28;20204;-77
2021/03/07 11:30:15;;;;;;;12.47;10.20;;;18.00;48.30;;;;;;4975947;28;20178;-77
2021/03/07 11:32:41;;;;;;;10.33;9.20;;;18.10;48.40;;;;;;4976473;28;20443;-77
2021/03/07 11:35:08;;;;;;;15.57;10.90;;;18.10;48.30;;;;;;4975695;28;20455;-77
2021/03/07 11:37:34;;;;;;;11.27;9.20;;;18.20;48.20;;;;;;4957794;28;20452;-76
2021/03/07 11:39:59;;;;;;;13.60;9.70;;;18.10;48.30;;;;;;4982775;28;20507;-76
2021/03/07 11:42:25;;;;;;;10.80;9.10;;;18.00;47.50;;;;;;4956949;28;20221;-77
2021/03/07 11:44:51;;;;;;;10.13;8.70;;;18.10;48.00;;;;;;4955664;28;20184;-77
2021/03/07 11:47:17;;;;;;;10.73;9.63;;;18.20;47.70;;;;;;4973744;28;20468;-77
2021/03/07 11:49:43;;;;;;;12.43;9.50;;;18.10;48.10;;;;;;4972427;28;20178;-77
2021/03/07 11:52:08;;;;;;;9.90;8.43;;;18.30;48.20;;;;;;4973059;28;20255;-77
2021/03/07 11:54:34;;;;;;;10.00;8.97;;;18.60;48.70;;;;;;4968591;28;20551;-77
2021/03/07 11:57:00;;;;;;;9.00;8.30;;;18.20;48.50;;;;;;4949792;28;20232;-77
2021/03/07 11:59:25;;;;;;;9.50;8.50;;;18.30;48.70;;;;;;4972472;28;20239;-77
2021/03/07 12:01:51;;;;;;;13.27;8.67;;;18.40;48.90;;;;;;4973701;28;20170;-77
2021/03/07 12:04:16;;;;;;;10.57;9.43;;;17.80;48.80;;;;;;4973223;28;20693;-77
2021/03/07 12:06:42;;;;;;;11.17;9.90;;;17.80;50.10;;;;;;4973136;28;20220;-77
2021/03/07 12:09:07;;;;;;;11.30;10.10;;;17.80;50.00;;;;;;4956236;28;20197;-77
2021/03/07 12:11:33;;;;;;;12.43;11.17;;;17.80;50.10;;;;;;4972110;28;20674;-77
2021/03/07 12:13:59;;;;;;;12.30;9.20;;;17.50;50.00;;;;;;4972118;28;20174;-77
2021/03/07 12:16:24;;;;;;;11.10;9.37;;;17.60;50.00;;;;;;4970953;28;20229;-77
2021/03/07 12:18:50;;;;;;;11.77;10.67;;;17.80;50.20;;;;;;4955908;28;20177;-76
2021/03/07 12:21:16;;;;;;;11.00;10.00;;;17.90;48.90;;;;;;4968683;28;20182;-77
2021/03/07 12:23:41;;;;;;;10.27;9.13;;;18.00;49.30;;;;;;4973230;28;20202;-77
2021/03/07 12:26:07;;;;;;;10.17;9.23;;;18.20;48.60;;;;;;4973199;28;20483;-77
2021/03/07 12:28:32;;;;;;;10.90;9.87;;;18.20;47.30;;;;;;4973361;28;20205;-77
2021/03/07 12:30:59;;;;;;;12.87;9.27;;;17.70;46.20;;;;;;4972141;28;20232;-76
2021/03/07 12:33:25;;;;;;;7.80;7.10;;;17.40;46.40;;;;;;4971072;28;20220;-76
2021/03/07 12:35:51;;;;;;;11.37;10.17;;;17.70;48.00;;;;;;4972312;28;20486;-76
2021/03/07 12:38:16;;;;;;;11.47;9.80;;;17.90;47.60;;;;;;4972748;28;20421;-76
2021/03/07 12:40:42;;;;;;;10.73;8.87;;;17.80;47.10;;;;;;4972066;28;20178;-76
2021/03/07 12:43:08;;;;;;;8.33;7.57;;;18.00;47.60;;;;;;4972358;28;20210;-76
2021/03/07 12:45:33;;;;;;;7.43;6.43;;;17.90;47.60;;;;;;4972382;28;20184;-76
2021/03/07 12:47:59;;;;;;;9.80;7.80;;;18.10;47.80;;;;;;4972421;28;20624;-75